Time;durP1;ratioP1;P1;durP2;ratioP2;P2;SDS_P1;SDS_P2;PMS_P1;PMS_P2;Temp;Humidity;BMP_temperature;BMP_pressure;BME280_temperature;BME280_humidity;BME280_pressure;Samples;Min_cycle;Max_cycle;Signal;HPM_P1;HPM_P2
2023/01/23 17:17:40;;;;;;;171.10;54.30;;;;;;;-0.23;100.00;102236.08;129412;1305;557867;-82
2023/01/23 17:20:41;;;;;;;146.60;48.80;;;;;;;-0.22;100.00;102242.14;130030;1295;22669;-79
2023/01/23 17:23:41;;;;;;;168.80;54.70;;;;;;;-0.18;100.00;102244.11;129758;1295;22692;-79
2023/01/23 17:26:43;;;;;;;155.80;51.50;;;;;;;-0.13;100.00;102242.56;129745;1295;24378;-81
2023/01/23 17:29:44;;;;;;;168.70;57.20;;;;;;;-0.05;100.00;102244.23;129583;1298;261002;-83
2023/01/23 17:32:50;;;;;;;148.90;53.30;;;;;;;-0.00;100.00;102247.55;129942;1292;25382;-80
2023/01/23 17:35:54;;;;;;;173.20;57.60;;;;;;;0.06;100.00;102251.39;129687;1296;22565;-82
2023/01/23 17:38:59;;;;;;;148.70;51.00;;;;;;;0.10;100.00;102243.42;129698;1298;22587;-82
2023/01/23 17:41:59;;;;;;;143.70;49.50;;;;;;;0.14;100.00;102247.29;129641;1294;22563;-80
2023/01/23 17:45:00;;;;;;;119.40;45.90;;;;;;;0.18;100.00;102249.45;130010;1294;22684;-81
2023/01/23 17:48:01;;;;;;;120.80;46.80;;;;;;;0.21;100.00;102245.33;129860;1295;22585;-81
2023/01/23 17:51:01;;;;;;;123.90;45.10;;;;;;;0.24;100.00;102243.83;129966;1295;22564;-80
2023/01/23 17:54:02;;;;;;;97.00;39.90;;;;;;;0.28;100.00;102242.48;130133;1298;24052;-82
2023/01/23 17:57:03;;;;;;;90.10;36.10;;;;;;;0.30;100.00;102247.85;129854;1295;24264;-85
2023/01/23 18:00:06;;;;;;;90.80;38.20;;;;;;;0.31;100.00;102251.98;130112;1298;22558;-83
2023/01/23 18:03:13;;;;;;;86.70;37.60;;;;;;;0.33;100.00;102254.00;130078;1295;23176;-83
2023/01/23 18:06:13;;;;;;;80.30;35.90;;;;;;;0.36;100.00;102254.96;129581;1295;22605;-80
2023/01/23 18:09:14;;;;;;;75.90;34.70;;;;;;;0.37;100.00;102256.31;129875;1293;25372;-82
2023/01/23 18:12:40;;;;;;;73.70;32.90;;;;;;;0.41;100.00;102253.06;129875;1285;23268;-81
2023/01/23 18:15:52;;;;;;;69.90;31.00;;;;;;;0.46;100.00;102257.96;129792;1295;22567;-83
2023/01/23 18:19:23;;;;;;;82.60;35.30;;;;;;;0.47;100.00;102258.80;129892;1302;22683;-82
2023/01/23 18:22:24;;;;;;;78.50;34.50;;;;;;;0.49;100.00;102258.91;129885;1298;22572;-81
2023/01/23 18:25:25;;;;;;;78.80;34.40;;;;;;;0.51;100.00;102264.77;129783;1298;22624;-81
2023/01/23 18:28:34;;;;;;;77.50;34.40;;;;;;;0.55;100.00;102261.65;129930;1295;22601;-83
2023/01/23 18:32:13;;;;;;;75.60;34.70;;;;;;;0.64;100.00;102265.04;129553;1298;22642;-82
2023/01/23 18:35:37;;;;;;;76.10;33.90;;;;;;;0.68;100.00;102261.77;129563;1298;25373;-82
2023/01/23 18:38:50;;;;;;;79.50;36.10;;;;;;;0.75;100.00;102263.63;129782;1298;24313;-83
2023/01/23 18:41:59;;;;;;;78.90;34.70;;;;;;;0.73;100.00;102268.20;130086;1295;22583;-82
2023/01/23 18:45:14;;;;;;;90.70;38.10;;;;;;;0.70;100.00;102265.17;129902;1295;24291;-81
2023/01/23 18:48:16;;;;;;;88.50;38.30;;;;;;;0.66;100.00;102264.77;129498;1296;22562;-83
2023/01/23 18:51:35;;;;;;;116.60;42.20;;;;;;;0.55;100.00;102264.25;129475;1295;25316;-82
2023/01/23 18:55:24;;;;;;;100.50;41.90;;;;;;;0.44;100.00;102267.06;129754;1301;22610;-84
2023/01/23 18:58:48;;;;;;;89.40;38.80;;;;;;;0.38;100.00;102263.24;129842;1295;22577;-82
2023/01/23 19:01:58;;;;;;;96.50;40.80;;;;;;;0.35;100.00;102262.46;129909;1298;25377;-84
2023/01/23 19:05:12;;;;;;;111.00;42.50;;;;;;;0.27;100.00;102257.50;129778;1301;22713;-83
2023/01/23 19:08:34;;;;;;;103.90;41.80;;;;;;;0.21;100.00;102262.75;129886;1298;22585;-86
2023/01/23 19:11:37;;;;;;;105.00;41.10;;;;;;;0.15;100.00;102269.03;129680;1294;22981;-85
2023/01/23 19:15:00;;;;;;;109.60;44.10;;;;;;;0.11;100.00;102267.06;129990;1295;22731;-81
2023/01/23 19:18:31;;;;;;;117.50;45.10;;;;;;;0.09;100.00;102270.45;129989;1297;25276;-81
2023/01/23 19:21:34;;;;;;;116.80;44.30;;;;;;;0.06;100.00;102274.35;129687;1298;23423;-83
2023/01/23 19:24:35;;;;;;;126.70;47.10;;;;;;;0.03;100.00;102269.41;130440;1297;22540;-82
2023/01/23 19:27:36;;;;;;;118.70;46.70;;;;;;;-0.01;100.00;102264.45;130250;1295;22575;-82
2023/01/23 19:30:37;;;;;;;121.70;47.80;;;;;;;-0.03;100.00;102265.02;129907;1295;22619;-83
2023/01/23 19:33:38;;;;;;;135.30;47.40;;;;;;;-0.03;100.00;102265.21;129993;1295;26564;-87
2023/01/23 19:36:38;;;;;;;114.70;44.30;;;;;;;-0.05;100.00;102261.97;129607;1297;22589;-87
2023/01/23 19:39:39;;;;;;;120.30;46.10;;;;;;;-0.06;100.00;102257.48;129559;1301;22737;-82
2023/01/23 19:42:42;;;;;;;117.40;46.40;;;;;;;-0.10;100.00;102256.36;129629;1300;22639;-84
2023/01/23 19:45:43;;;;;;;122.70;44.80;;;;;;;-0.09;100.00;102258.44;129831;1302;22581;-82
2023/01/23 19:48:44;;;;;;;135.20;47.40;;;;;;;-0.11;100.00;102261.10;129760;1302;22605;-83
2023/01/23 19:51:45;;;;;;;;;;;;;;;-0.12;100.00;102259.23;129496;1301;23896;-83
2023/01/23 19:54:46;;;;;;;;;;;;;;;-0.14;100.00;102259.46;130202;1298;23238;-82
2023/01/23 19:57:46;;;;;;;123.10;46.00;;;;;;;-0.16;100.00;102257.44;130347;1301;22598;-85
2023/01/23 20:00:47;;;;;;;129.60;47.80;;;;;;;-0.16;100.00;102253.60;130057;1298;25537;-80
2023/01/23 20:03:48;;;;;;;141.20;51.80;;;;;;;-0.17;100.00;102256.24;129908;1297;25373;-81
2023/01/23 20:06:50;;;;;;;;;;;;;;;-0.16;100.00;102250.33;130016;1295;22585;-84
2023/01/23 20:09:51;;;;;;;125.20;46.20;;;;;;;-0.16;100.00;102252.02;129970;1301;25382;-83
2023/01/23 20:12:53;;;;;;;122.20;45.90;;;;;;;-0.14;100.00;102252.33;129923;1297;22559;-84
2023/01/23 20:15:53;;;;;;;125.10;45.50;;;;;;;-0.14;100.00;102252.34;129700;1299;22556;-83
2023/01/23 20:18:54;;;;;;;130.70;47.30;;;;;;;-0.15;100.00;102256.86;129565;1294;25383;-81
2023/01/23 20:21:54;;;;;;;;;;;;;;;-0.13;100.00;102257.88;130101;1299;22533;-83
2023/01/23 20:24:55;;;;;;;115.10;43.50;;;;;;;-0.12;100.00;102257.31;129970;1294;24681;-79
2023/01/23 20:27:56;;;;;;;125.00;45.90;;;;;;;-0.10;100.00;102255.67;129857;1294;26541;-84
2023/01/23 20:31:03;;;;;;;122.80;47.10;;;;;;;-0.07;100.00;102256.81;129551;1295;25278;-86
2023/01/23 20:34:06;;;;;;;115.90;44.30;;;;;;;-0.06;100.00;102257.31;129968;1298;22576;-83
2023/01/23 20:37:06;;;;;;;114.40;41.40;;;;;;;-0.08;100.00;102259.63;130001;1298;22580;-84
2023/01/23 20:40:10;;;;;;;115.20;45.80;;;;;;;-0.12;100.00;102257.11;129766;1294;22586;-83
2023/01/23 20:43:10;;;;;;;111.10;42.70;;;;;;;-0.12;100.00;102256.95;129974;1303;24245;-84
2023/01/23 20:46:14;;;;;;;129.80;44.70;;;;;;;-0.14;100.00;102254.59;129718;1295;22567;-83
2023/01/23 20:49:14;;;;;;;118.00;45.40;;;;;;;-0.13;100.00;102248.30;130271;1294;22642;-86
2023/01/23 20:55:34;;;;;;;114.40;43.90;;;;;;;-0.09;100.00;102239.11;130080;1292;25401;-79
2023/01/23 21:05:17;;;;;;;121.60;46.90;;;;;;;-0.05;100.00;102259.70;129972;1298;22566;-83
2023/01/23 21:08:18;;;;;;;122.90;46.90;;;;;;;-0.06;100.00;102259.91;130266;1292;22583;-80
2023/01/23 21:11:19;;;;;;;128.10;49.10;;;;;;;-0.05;100.00;102258.50;130249;1301;22561;-82
2023/01/23 21:14:21;;;;;;;120.50;50.90;;;;;;;-0.05;100.00;102261.81;130313;1301;25443;-82
2023/01/23 21:17:22;;;;;;;119.80;48.00;;;;;;;-0.05;100.00;102264.57;130282;1298;23352;-80
2023/01/23 21:20:23;;;;;;;119.30;48.20;;;;;;;-0.03;100.00;102262.96;130240;1300;22656;-81
2023/01/23 21:23:23;;;;;;;125.80;49.90;;;;;;;-0.02;100.00;102263.42;130231;1301;22617;-86
2023/01/23 21:26:26;;;;;;;120.40;49.40;;;;;;;0.01;100.00;102261.98;130220;1295;22605;-83
2023/01/23 21:29:27;;;;;;;120.40;50.00;;;;;;;0.05;100.00;102266.56;130250;1301;22639;-80
2023/01/23 21:32:28;;;;;;;111.00;50.20;;;;;;;0.08;100.00;102267.17;130004;1301;22586;-84
2023/01/23 21:35:29;;;;;;;115.20;47.80;;;;;;;0.09;100.00;102265.04;129995;1298;22601;-82
2023/01/23 21:38:29;;;;;;;122.30;51.10;;;;;;;0.07;100.00;102264.40;130275;1294;24300;-84
2023/01/23 21:41:30;;;;;;;113.10;45.50;;;;;;;0.06;100.00;102271.20;129850;1295;22572;-84
2023/01/23 21:44:30;;;;;;;106.40;44.00;;;;;;;0.06;100.00;102268.79;130143;1298;22559;-82
2023/01/23 21:47:33;;;;;;;119.10;50.50;;;;;;;0.05;100.00;102264.63;129953;1301;22613;-80
2023/01/23 21:50:35;;;;;;;110.50;47.50;;;;;;;0.02;100.00;102266.10;129868;1302;23260;-84
2023/01/23 21:53:38;;;;;;;117.10;49.10;;;;;;;-0.01;100.00;102259.23;130035;1301;24247;-85
2023/01/23 21:56:38;;;;;;;123.10;50.00;;;;;;;-0.04;100.00;102259.48;130101;1295;25447;-83
2023/01/23 21:59:39;;;;;;;113.20;47.40;;;;;;;-0.05;100.00;102257.11;130197;1295;24052;-85
2023/01/23 22:02:40;;;;;;;104.00;44.70;;;;;;;-0.07;100.00;102255.42;130019;1298;22562;-84
2023/01/23 22:05:41;;;;;;;100.30;41.80;;;;;;;-0.09;100.00;102253.91;129839;1301;22562;-84
2023/01/23 22:08:42;;;;;;;98.60;41.20;;;;;;;-0.11;100.00;102259.02;130147;1292;24278;-82
2023/01/23 22:11:44;;;;;;;104.00;43.30;;;;;;;-0.13;100.00;102263.25;129799;1300;24483;-83
2023/01/23 22:14:45;;;;;;;102.20;39.80;;;;;;;-0.14;100.00;102264.85;130171;1292;23249;-81
2023/01/23 22:17:45;;;;;;;97.00;39.50;;;;;;;-0.15;100.00;102265.93;130185;1292;25786;-83
2023/01/23 22:20:46;;;;;;;101.10;40.30;;;;;;;-0.16;100.00;102265.95;130111;1298;23354;-83
2023/01/23 22:23:47;;;;;;;113.00;45.20;;;;;;;-0.17;100.00;102265.12;129655;1293;22548;-83
2023/01/23 22:26:48;;;;;;;111.70;43.40;;;;;;;-0.17;100.00;102260.42;129859;1302;24331;-86
2023/01/23 22:29:51;;;;;;;94.20;40.50;;;;;;;-0.18;100.00;102258.70;130124;1292;24240;-85
2023/01/23 22:32:52;;;;;;;113.20;41.00;;;;;;;-0.18;100.00;102263.05;130305;1292;25335;-85
2023/01/23 22:35:52;;;;;;;112.00;44.80;;;;;;;-0.19;100.00;102266.05;129729;1294;23941;-83
2023/01/23 22:38:53;;;;;;;103.60;45.10;;;;;;;-0.18;100.00;102266.88;130153;1292;22564;-85
2023/01/23 22:41:56;;;;;;;112.60;45.50;;;;;;;-0.18;100.00;102265.86;130145;1301;22601;-85
2023/01/23 22:44:57;;;;;;;110.90;44.10;;;;;;;-0.17;100.00;102266.88;130079;1292;22584;-84
2023/01/23 22:47:58;;;;;;;118.00;48.30;;;;;;;-0.18;100.00;102268.61;130170;1292;24240;-84
2023/01/23 22:51:00;;;;;;;115.80;46.70;;;;;;;-0.17;100.00;102278.68;129764;1292;22730;-83
2023/01/23 22:54:01;;;;;;;105.60;43.60;;;;;;;-0.17;100.00;102275.04;129939;1292;22808;-82
2023/01/23 22:57:02;;;;;;;117.10;47.70;;;;;;;-0.17;100.00;102272.08;130360;1301;22613;-83
2023/01/23 23:00:10;;;;;;;104.30;40.80;;;;;;;-0.17;100.00;102275.56;130165;1292;24291;-83
2023/01/23 23:03:11;;;;;;;121.10;47.80;;;;;;;-0.17;100.00;102276.79;129965;1298;25312;-81
2023/01/23 23:06:13;;;;;;;122.40;48.90;;;;;;;-0.18;100.00;102275.91;130359;1295;22704;-82
2023/01/23 23:09:14;;;;;;;117.20;45.70;;;;;;;-0.18;100.00;102275.06;130117;1301;22566;-82
2023/01/23 23:12:14;;;;;;;124.40;47.30;;;;;;;-0.19;100.00;102272.65;130257;1292;25527;-83
2023/01/23 23:15:15;;;;;;;117.80;46.90;;;;;;;-0.19;100.00;102278.74;130342;1301;23543;-84
2023/01/23 23:18:16;;;;;;;120.10;47.20;;;;;;;-0.19;100.00;102274.92;130586;1301;24097;-82
2023/01/23 23:21:19;;;;;;;120.20;47.40;;;;;;;-0.19;100.00;102273.88;130484;1300;22796;-81
2023/01/23 23:24:19;;;;;;;116.00;47.80;;;;;;;-0.19;100.00;102277.88;130431;1295;22626;-84
2023/01/23 23:27:20;;;;;;;113.50;46.40;;;;;;;-0.19;100.00;102271.61;130408;1301;22602;-83
2023/01/23 23:30:20;;;;;;;110.50;43.60;;;;;;;-0.19;100.00;102277.36;129965;1302;24284;-81
2023/01/23 23:33:21;;;;;;;116.80;44.20;;;;;;;-0.18;100.00;102280.29;130092;1292;22556;-80
2023/01/23 23:36:23;;;;;;;122.00;48.20;;;;;;;-0.18;100.00;102278.54;130061;1292;25422;-83
2023/01/23 23:39:24;;;;;;;114.50;47.10;;;;;;;-0.18;100.00;102272.96;130073;1301;22562;-79
2023/01/23 23:42:25;;;;;;;115.90;48.40;;;;;;;-0.18;100.00;102271.92;130013;1300;22563;-81
2023/01/23 23:45:25;;;;;;;123.30;50.20;;;;;;;-0.18;100.00;102272.79;129787;1293;22610;-80
2023/01/23 23:48:28;;;;;;;126.50;49.20;;;;;;;-0.18;100.00;102274.36;130093;1295;25492;-80
2023/01/23 23:51:28;;;;;;;115.30;46.60;;;;;;;-0.18;100.00;102270.19;130055;1295;22564;-82
2023/01/23 23:54:29;;;;;;;117.20;48.70;;;;;;;-0.19;100.00;102270.04;130098;1300;22807;-83
2023/01/23 23:57:29;;;;;;;128.20;53.00;;;;;;;-0.19;100.00;102269.71;130127;1301;22733;-83
